Time;durP1;ratioP1;P1;durP2;ratioP2;P2;SDS_P1;SDS_P2;PMS_P1;PMS_P2;Temp;Humidity;BMP_temperature;BMP_pressure;BME280_temperature;BME280_humidity;BME280_pressure;Samples;Min_cycle;Max_cycle;Signal;HPM_P1;HPM_P2
2022/08/26 00:00:36;;;;;;;;;;;;;;;25.41;58.32;101269.56;1049449;28;646;-67
2022/08/26 00:01:27;;;;;;;;;;;;;;;25.41;58.59;101270.41;1049805;28;646;-67
2022/08/26 00:02:17;;;;;;;;;;;;;;;25.41;58.25;101269.56;1049682;28;673;-67
2022/08/26 00:03:08;;;;;;;;;;;;;;;25.42;58.31;101263.94;1049770;28;701;-67
2022/08/26 00:03:58;;;;;;;;;;;;;;;25.42;58.17;101265.81;1049808;28;645;-67
2022/08/26 00:04:49;;;;;;;;;;;;;;;25.40;58.26;101263.25;1048247;28;712;-67
2022/08/26 00:05:39;;;;;;;;;;;;;;;25.40;58.40;101263.25;1048431;28;692;-68
2022/08/26 00:06:30;;;;;;;;;;;;;;;25.42;58.28;101271.25;1049642;28;713;-67
2022/08/26 00:07:20;;;;;;;;;;;;;;;25.41;58.09;101270.41;1048687;28;702;-67
2022/08/26 00:08:11;;;;;;;;;;;;;;;25.41;58.22;101269.56;1048464;28;694;-67
2022/08/26 00:09:02;;;;;;;;;;;;;;;25.41;58.20;101281.31;1048635;28;697;-67
2022/08/26 00:09:53;;;;;;;;;;;;;;;25.39;58.16;101272.47;1049663;28;651;-67
2022/08/26 00:10:43;;;;;;;;;;;;;;;25.41;58.31;101275.88;1049726;28;626;-67
2022/08/26 00:11:34;;;;;;;;;;;;;;;25.39;58.33;101280.66;1048533;28;662;-67
2022/08/26 00:12:24;;;;;;;;;;;;;;;25.39;58.28;101285.28;1048552;28;1239;-67
2022/08/26 00:13:15;;;;;;;;;;;;;;;25.36;58.44;101278.31;1045258;28;704;-67
2022/08/26 00:14:05;;;;;;;;;;;;;;;25.36;58.49;101272.00;1045296;28;704;-67
2022/08/26 00:14:55;;;;;;;;;;;;;;;25.36;58.37;101277.44;1048395;28;636;-67
2022/08/26 00:15:46;;;;;;;;;;;;;;;25.33;58.37;101277.81;1049067;28;665;-67
2022/08/26 00:16:36;;;;;;;;;;;;;;;25.33;58.46;101273.22;1049049;28;645;-67
2022/08/26 00:17:27;;;;;;;;;;;;;;;25.34;58.57;101277.63;1049148;28;725;-67
2022/08/26 00:18:17;;;;;;;;;;;;;;;25.35;58.51;101271.16;1048475;28;619;-67
2022/08/26 00:19:08;;;;;;;;;;;;;;;25.35;58.39;101278.47;1049025;28;967;-67
2022/08/26 00:19:59;;;;;;;;;;;;;;;25.35;58.35;101268.41;1049097;28;646;-67
2022/08/26 00:20:49;;;;;;;;;;;;;;;25.33;58.43;101272.34;1048543;28;646;-67
2022/08/26 00:21:40;;;;;;;;;;;;;;;25.33;58.32;101275.94;1049033;28;677;-67
2022/08/26 00:22:30;;;;;;;;;;;;;;;25.31;58.35;101278.00;1049087;28;671;-67
2022/08/26 00:23:21;;;;;;;;;;;;;;;25.31;58.51;101268.97;1048923;28;699;-67
2022/08/26 00:24:12;;;;;;;;;;;;;;;25.30;58.51;101278.19;1048606;28;631;-67
2022/08/26 00:25:02;;;;;;;;;;;;;;;25.31;58.35;101278.00;1048501;28;658;-67
2022/08/26 00:25:52;;;;;;;;;;;;;;;25.31;58.60;101275.28;1049083;28;658;-67
2022/08/26 00:26:43;;;;;;;;;;;;;;;25.31;58.45;101268.97;1049014;28;630;-67
2022/08/26 00:27:33;;;;;;;;;;;;;;;25.31;58.40;101272.53;1049045;28;696;-67
2022/08/26 00:28:24;;;;;;;;;;;;;;;25.31;58.80;101263.50;1049021;28;630;-67
2022/08/26 00:29:14;;;;;;;;;;;;;;;25.31;58.50;101268.97;1049083;28;693;-67
2022/08/26 00:30:05;;;;;;;;;;;;;;;25.31;58.34;101263.50;1049099;28;649;-67
2022/08/26 00:30:56;;;;;;;;;;;;;;;25.32;58.60;101265.19;1048385;28;634;-67
2022/08/26 00:31:46;;;;;;;;;;;;;;;25.28;58.42;101262.00;1048358;28;709;-67
2022/08/26 00:32:37;;;;;;;;;;;;;;;25.29;58.47;101273.75;1048601;28;642;-67
2022/08/26 00:33:27;;;;;;;;;;;;;;;25.30;58.39;101272.72;1049051;28;749;-67
2022/08/26 00:34:18;;;;;;;;;;;;;;;25.27;58.37;101269.34;1049051;28;732;-67
2022/08/26 00:35:09;;;;;;;;;;;;;;;25.27;58.37;101269.34;1049121;28;686;-67
2022/08/26 00:36:00;;;;;;;;;;;;;;;25.25;58.61;101265.97;1049609;28;641;-67
2022/08/26 00:36:50;;;;;;;;;;;;;;;25.24;58.46;101277.06;1049558;28;634;-67
2022/08/26 00:37:41;;;;;;;;;;;;;;;25.24;58.40;101266.16;1048902;28;755;-67
2022/08/26 00:38:31;;;;;;;;;;;;;;;25.25;58.35;101268.69;1048290;28;705;-67
2022/08/26 00:39:22;;;;;;;;;;;;;;;25.25;58.35;101265.13;1048978;28;678;-67
2022/08/26 00:40:12;;;;;;;;;;;;;;;25.24;58.57;101258.81;1049106;28;658;-67
2022/08/26 00:41:03;;;;;;;;;;;;;;;25.24;58.63;101264.28;1048947;28;721;-67
2022/08/26 00:41:53;;;;;;;;;;;;;;;25.24;58.58;101261.53;1048897;28;693;-67
2022/08/26 00:42:43;;;;;;;;;;;;;;;25.25;58.49;101265.13;1048931;28;677;-67
2022/08/26 00:43:34;;;;;;;;;;;;;;;25.22;58.47;101263.59;1048952;28;663;-67
2022/08/26 00:44:24;;;;;;;;;;;;;;;25.24;58.62;101264.28;1049166;28;673;-67
2022/08/26 00:45:15;;;;;;;;;;;;;;;25.25;58.51;101263.25;1048821;28;681;-67
2022/08/26 00:46:05;;;;;;;;;;;;;;;25.24;58.47;101257.97;1048892;28;1898;-67
2022/08/26 00:46:57;;;;;;;;;;;;;;;25.22;58.46;101260.03;1048453;28;689;-67
2022/08/26 00:47:47;;;;;;;;;;;;;;;25.23;58.53;101273.47;1049540;28;653;-67
2022/08/26 00:48:37;;;;;;;;;;;;;;;25.18;58.53;101265.00;1048954;28;650;-67
2022/08/26 00:49:28;;;;;;;;;;;;;;;25.19;58.75;101272.16;1044913;28;673;-67
2022/08/26 00:50:19;;;;;;;;;;;;;;;25.21;58.67;101267.38;1044721;28;693;-67
2022/08/26 00:51:09;;;;;;;;;;;;;;;25.21;58.47;101270.09;1044964;28;704;-67
2022/08/26 00:51:59;;;;;;;;;;;;;;;25.23;58.50;101281.66;1044750;28;642;-67
2022/08/26 00:52:50;;;;;;;;;;;;;;;25.24;58.50;101280.63;1044909;28;689;-67
2022/08/26 00:53:40;;;;;;;;;;;;;;;25.23;58.51;101280.81;1044816;28;646;-67
2022/08/26 00:54:31;;;;;;;;;;;;;;;25.21;58.54;101275.53;1044766;28;689;-67
2022/08/26 00:55:21;;;;;;;;;;;;;;;25.19;58.42;101277.59;1044768;28;712;-67
2022/08/26 00:56:12;;;;;;;;;;;;;;;25.19;58.68;101274.03;1044717;28;626;-66
2022/08/26 00:57:02;;;;;;;;;;;;;;;25.19;58.46;101277.59;1044874;28;645;-67
2022/08/26 00:57:52;;;;;;;;;;;;;;;25.19;58.42;101269.44;1044766;28;710;-67
2022/08/26 00:58:44;;;;;;;;;;;;;;;25.18;58.58;101275.06;1044951;28;677;-67
2022/08/26 00:59:34;;;;;;;;;;;;;;;25.18;58.62;101269.59;1045476;28;690;-67
2022/08/26 01:00:25;;;;;;;;;;;;;;;25.18;58.65;101273.19;1040916;28;652;-67
2022/08/26 01:01:15;;;;;;;;;;;;;;;25.18;58.71;101273.19;1040456;28;724;-67
2022/08/26 01:02:06;;;;;;;;;;;;;;;25.18;58.67;101275.06;1044753;28;670;-67
2022/08/26 01:02:56;;;;;;;;;;;;;;;25.17;58.79;101278.81;1044759;28;724;-67
2022/08/26 01:03:46;;;;;;;;;;;;;;;25.15;58.66;101276.28;1044742;28;645;-67
2022/08/26 01:04:37;;;;;;;;;;;;;;;25.16;58.64;101277.97;1044726;28;626;-67
2022/08/26 01:05:27;;;;;;;;;;;;;;;25.16;58.69;101271.66;1044938;28;654;-67
2022/08/26 01:06:18;;;;;;;;;;;;;;;25.15;58.68;101279.00;1044659;28;1975;-67
2022/08/26 01:07:08;;;;;;;;;;;;;;;25.14;58.66;101276.47;1044865;28;701;-67
2022/08/26 01:07:58;;;;;;;;;;;;;;;25.15;58.53;101270.81;1044750;28;724;-67
2022/08/26 01:08:50;;;;;;;;;;;;;;;25.13;58.56;101266.56;1044856;28;618;-67
2022/08/26 01:09:40;;;;;;;;;;;;;;;25.13;58.82;101269.31;1044864;28;758;-67
2022/08/26 01:10:30;;;;;;;;;;;;;;;25.13;58.57;101267.41;1044705;28;686;-67
2022/08/26 01:11:21;;;;;;;;;;;;;;;25.12;58.89;101275.78;1044765;28;622;-67
2022/08/26 01:12:12;;;;;;;;;;;;;;;25.11;58.67;101271.38;1045220;28;1255;-67
2022/08/26 01:13:02;;;;;;;;;;;;;;;25.11;58.87;101266.75;1044810;28;665;-67
2022/08/26 01:13:53;;;;;;;;;;;;;;;25.14;58.82;101276.47;1044832;28;629;-67
2022/08/26 01:14:44;;;;;;;;;;;;;;;25.13;58.63;101272.88;1041025;28;598;-67
2022/08/26 01:15:35;;;;;;;;;;;;;;;25.14;58.83;101279.19;1040966;28;679;-67
2022/08/26 01:16:25;;;;;;;;;;;;;;;25.12;58.64;101268.44;1045385;28;648;-67
2022/08/26 01:17:16;;;;;;;;;;;;;;;25.10;58.81;101267.78;1044649;28;656;-67
2022/08/26 01:18:06;;;;;;;;;;;;;;;25.10;58.81;101275.13;1044751;28;713;-67
2022/08/26 01:18:57;;;;;;;;;;;;;;;25.11;58.61;101271.38;1044672;28;697;-67
2022/08/26 01:19:47;;;;;;;;;;;;;;;25.11;58.79;101265.91;1044714;28;646;-67
2022/08/26 01:20:38;;;;;;;;;;;;;;;25.11;58.65;101272.22;1044784;28;628;-67
2022/08/26 01:21:28;;;;;;;;;;;;;;;25.13;58.59;101266.56;1044736;28;697;-67
2022/08/26 01:22:19;;;;;;;;;;;;;;;25.11;58.85;101269.47;1040887;28;665;-67
2022/08/26 01:23:09;;;;;;;;;;;;;;;25.10;58.73;101262.31;1041484;28;791;-67
2022/08/26 01:24:00;;;;;;;;;;;;;;;25.11;58.74;101264.03;1044690;28;613;-67
2022/08/26 01:24:50;;;;;;;;;;;;;;;25.09;58.72;101257.91;1044861;28;688;-67
2022/08/26 01:25:41;;;;;;;;;;;;;;;25.09;58.91;101263.34;1040852;28;610;-67
2022/08/26 01:26:31;;;;;;;;;;;;;;;25.09;58.85;101260.63;1040930;28;1897;-67
2022/08/26 01:27:22;;;;;;;;;;;;;;;25.08;58.85;101256.22;1044647;28;689;-67
2022/08/26 01:28:12;;;;;;;;;;;;;;;25.06;59.06;101255.56;1044726;28;645;-67
2022/08/26 01:29:03;;;;;;;;;;;;;;;25.06;58.86;101263.75;1045261;28;891;-67
2022/08/26 01:29:53;;;;;;;;;;;;;;;25.07;58.97;101259.16;1044743;28;626;-68
2022/08/26 01:30:44;;;;;;;;;;;;;;;25.05;58.98;101259.31;1044294;28;673;-67
2022/08/26 01:31:35;;;;;;;;;;;;;;;25.05;58.77;101261.22;1044917;28;642;-66
2022/08/26 01:32:25;;;;;;;;;;;;;;;25.07;58.94;101260.00;1044633;28;709;-67
2022/08/26 01:33:16;;;;;;;;;;;;;;;25.06;58.99;101263.75;1044651;28;669;-67
2022/08/26 01:34:06;;;;;;;;;;;;;;;25.06;58.87;101266.47;1044676;28;732;-67
2022/08/26 01:34:57;;;;;;;;;;;;;;;25.05;58.79;101277.56;1044670;28;696;-67
2022/08/26 01:35:47;;;;;;;;;;;;;;;25.05;58.78;101264.78;1044665;28;689;-67
2022/08/26 01:36:37;;;;;;;;;;;;;;;25.06;58.80;101268.34;1044678;28;633;-67
2022/08/26 01:37:28;;;;;;;;;;;;;;;25.06;58.80;101266.47;1044683;28;618;-67
2022/08/26 01:38:18;;;;;;;;;;;;;;;25.05;58.72;101270.25;1040761;28;658;-67
2022/08/26 01:39:09;;;;;;;;;;;;;;;25.06;58.93;101266.47;1041431;28;649;-67
2022/08/26 01:39:59;;;;;;;;;;;;;;;25.04;58.76;101274.00;1045210;28;680;-67
2022/08/26 01:40:50;;;;;;;;;;;;;;;25.06;58.93;101271.94;1044668;28;673;-67
2022/08/26 01:41:40;;;;;;;;;;;;;;;25.04;59.03;101262.25;1044820;28;675;-67
2022/08/26 01:42:31;;;;;;;;;;;;;;;25.01;59.04;101265.31;1044619;28;672;-67
2022/08/26 01:43:21;;;;;;;;;;;;;;;25.00;58.94;101261.75;1045231;28;692;-67
2022/08/26 01:44:11;;;;;;;;;;;;;;;25.01;59.02;101268.91;1044542;28;646;-67
2022/08/26 01:45:02;;;;;;;;;;;;;;;25.02;58.84;101270.59;1044194;28;649;-67
2022/08/26 01:45:55;;;;;;;;;;;;;;;25.01;58.81;101263.44;1044607;28;642;-67
2022/08/26 01:46:46;;;;;;;;;;;;;;;25.03;58.77;101282.34;1044710;28;665;-67
2022/08/26 01:47:36;;;;;;;;;;;;;;;25.02;58.99;101270.59;1044746;28;661;-67
2022/08/26 01:48:27;;;;;;;;;;;;;;;25.02;59.04;101269.75;1044563;28;686;-67
2022/08/26 01:49:18;;;;;;;;;;;;;;;25.02;59.05;101270.59;1044389;28;693;-67
2022/08/26 01:50:08;;;;;;;;;;;;;;;25.01;59.01;101268.06;1044453;28;708;-67
2022/08/26 01:50:59;;;;;;;;;;;;;;;25.01;59.10;101266.19;1045355;28;645;-67
2022/08/26 01:51:49;;;;;;;;;;;;;;;25.00;59.07;101267.22;1044235;28;717;-67
2022/08/26 01:52:39;;;;;;;;;;;;;;;25.01;58.79;101271.63;1043985;28;658;-67
2022/08/26 01:53:30;;;;;;;;;;;;;;;25.01;58.91;101268.91;1044058;28;717;-67
2022/08/26 01:54:20;;;;;;;;;;;;;;;25.01;58.84;101263.44;1044210;28;626;-67
2022/08/26 01:55:12;;;;;;;;;;;;;;;25.00;58.99;101264.47;1044053;28;833;-67
2022/08/26 01:56:02;;;;;;;;;;;;;;;24.98;59.00;101266.53;1045877;28;652;-67
2022/08/26 01:56:53;;;;;;;;;;;;;;;24.97;58.90;101267.56;1044076;28;690;-67
2022/08/26 01:57:43;;;;;;;;;;;;;;;24.97;59.15;101267.56;1045095;28;693;-67
2022/08/26 01:58:34;;;;;;;;;;;;;;;24.98;59.05;101274.72;1044883;28;674;-67
2022/08/26 01:59:24;;;;;;;;;;;;;;;24.97;58.84;101269.44;1044567;28;733;-67
2022/08/26 02:00:15;;;;;;;;;;;;;;;24.97;58.88;101273.03;1044708;28;639;-67
2022/08/26 02:01:05;;;;;;;;;;;;;;;24.97;59.15;101273.03;1044948;28;721;-67
2022/08/26 02:01:55;;;;;;;;;;;;;;;24.96;58.95;101276.78;1045450;28;646;-67
2022/08/26 02:02:46;;;;;;;;;;;;;;;24.98;59.07;101272.00;1044959;28;701;-67
2022/08/26 02:03:36;;;;;;;;;;;;;;;24.98;58.86;101277.44;1045019;28;657;-67
2022/08/26 02:04:27;;;;;;;;;;;;;;;24.97;59.07;101275.75;1044502;28;677;-67
2022/08/26 02:05:17;;;;;;;;;;;;;;;24.97;59.03;101273.03;1045029;28;635;-67
2022/08/26 02:06:08;;;;;;;;;;;;;;;24.98;59.06;101273.88;1045513;28;1968;-67
2022/08/26 02:06:59;;;;;;;;;;;;;;;24.96;59.00;101270.47;1044804;28;678;-67
2022/08/26 02:07:49;;;;;;;;;;;;;;;24.97;58.85;101269.44;1044954;28;618;-67
2022/08/26 02:08:40;;;;;;;;;;;;;;;24.97;58.94;101277.63;1044836;28;660;-67
2022/08/26 02:09:30;;;;;;;;;;;;;;;24.95;59.07;101274.22;1044893;28;717;-67
2022/08/26 02:10:20;;;;;;;;;;;;;;;24.96;59.15;101275.94;1044699;28;618;-67
2022/08/26 02:11:11;;;;;;;;;;;;;;;24.95;59.00;101269.63;1044921;28;666;-67
2022/08/26 02:12:01;;;;;;;;;;;;;;;24.95;59.03;101274.22;1044506;28;709;-67
2022/08/26 02:12:52;;;;;;;;;;;;;;;24.92;58.97;101273.53;1041423;28;677;-67
2022/08/26 02:13:42;;;;;;;;;;;;;;;24.94;59.18;101273.38;1042973;28;653;-67
2022/08/26 02:14:33;;;;;;;;;;;;;;;24.95;59.23;101272.34;1042477;28;614;-67
2022/08/26 02:15:23;;;;;;;;;;;;;;;24.95;59.03;101271.50;1043044;28;649;-67
2022/08/26 02:16:13;;;;;;;;;;;;;;;24.94;59.17;101273.38;1043096;28;751;-67
2022/08/26 02:17:06;;;;;;;;;;;;;;;24.93;59.06;101269.78;1043102;28;780;-67
2022/08/26 02:17:56;;;;;;;;;;;;;;;24.93;58.93;101271.66;1042967;28;634;-67
2022/08/26 02:18:46;;;;;;;;;;;;;;;24.93;59.10;101274.38;1042942;28;673;-67
2022/08/26 02:19:37;;;;;;;;;;;;;;;24.92;59.18;101270.81;1043018;28;661;-67
2022/08/26 02:20:28;;;;;;;;;;;;;;;24.91;59.07;101271.84;1042381;28;693;-67
2022/08/26 02:21:19;;;;;;;;;;;;;;;24.90;59.12;101272.03;1043112;28;713;-67
2022/08/26 02:22:10;;;;;;;;;;;;;;;24.89;59.19;101275.78;1043018;28;740;-67
2022/08/26 02:23:00;;;;;;;;;;;;;;;24.91;59.17;101273.72;1041808;28;658;-67
2022/08/26 02:23:51;;;;;;;;;;;;;;;24.89;58.98;101278.53;1042987;28;633;-67
2022/08/26 02:24:41;;;;;;;;;;;;;;;24.89;59.22;101278.53;1043012;28;685;-67
2022/08/26 02:25:32;;;;;;;;;;;;;;;24.90;59.17;101281.03;1043075;28;641;-67
2022/08/26 02:26:22;;;;;;;;;;;;;;;24.90;59.17;101280.22;1042878;28;1973;-67
2022/08/26 02:27:13;;;;;;;;;;;;;;;24.88;59.12;101274.09;1042144;28;630;-67
2022/08/26 02:28:04;;;;;;;;;;;;;;;24.87;59.08;101278.69;1041487;28;651;-67
2022/08/26 02:28:54;;;;;;;;;;;;;;;24.87;59.16;101277.84;1042401;28;701;-67
2022/08/26 02:29:44;;;;;;;;;;;;;;;24.87;59.21;101277.84;1043092;28;635;-67
2022/08/26 02:30:35;;;;;;;;;;;;;;;24.86;59.10;101279.72;1042105;28;677;-67
2022/08/26 02:31:26;;;;;;;;;;;;;;;24.87;59.26;101280.59;1041420;28;902;-67
2022/08/26 02:32:16;;;;;;;;;;;;;;;24.87;59.15;101278.69;1041373;28;667;-67
2022/08/26 02:33:07;;;;;;;;;;;;;;;24.88;59.00;101279.56;1043013;28;649;-67
2022/08/26 02:33:57;;;;;;;;;;;;;;;24.87;59.28;101284.16;1042892;28;850;-67
2022/08/26 02:34:48;;;;;;;;;;;;;;;24.86;59.00;101277.00;1042464;28;614;-67
2022/08/26 02:35:38;;;;;;;;;;;;;;;24.86;59.24;101276.16;1042320;28;677;-67
2022/08/26 02:36:29;;;;;;;;;;;;;;;24.86;59.14;101274.28;1042959;28;708;-67
2022/08/26 02:37:19;;;;;;;;;;;;;;;24.86;59.16;101282.47;1042963;28;701;-67
2022/08/26 02:38:09;;;;;;;;;;;;;;;24.85;59.23;101269.84;1041464;28;657;-67
2022/08/26 02:39:00;;;;;;;;;;;;;;;24.84;59.29;101272.75;1042126;28;634;-67
2022/08/26 02:39:50;;;;;;;;;;;;;;;24.85;59.34;101275.31;1042410;28;712;-67
2022/08/26 02:40:42;;;;;;;;;;;;;;;24.86;59.23;101281.63;1042898;28;684;-68
2022/08/26 02:41:33;;;;;;;;;;;;;;;24.86;59.09;101282.47;1041454;28;642;-67
2022/08/26 02:42:23;;;;;;;;;;;;;;;24.85;59.35;101278.03;1042605;28;728;-67
2022/08/26 02:43:14;;;;;;;;;;;;;;;24.86;59.18;101276.16;1041644;28;700;-67
2022/08/26 02:44:05;;;;;;;;;;;;;;;24.84;59.08;101275.50;1042452;28;633;-67
2022/08/26 02:44:56;;;;;;;;;;;;;;;24.83;59.09;101268.34;1041404;28;729;-67
2022/08/26 02:45:46;;;;;;;;;;;;;;;24.82;59.22;101267.50;1042688;28;669;-67
2022/08/26 02:46:37;;;;;;;;;;;;;;;24.83;59.32;101271.06;1041969;28;1918;-67
2022/08/26 02:47:28;;;;;;;;;;;;;;;24.82;59.07;101263.91;1041139;28;646;-67
2022/08/26 02:48:19;;;;;;;;;;;;;;;24.83;59.13;101265.59;1042229;28;649;-67
2022/08/26 02:49:10;;;;;;;;;;;;;;;24.82;59.22;101267.50;1044874;28;1394;-67
2022/08/26 02:50:00;;;;;;;;;;;;;;;24.82;59.23;101264.75;1045364;28;646;-67
2022/08/26 02:50:51;;;;;;;;;;;;;;;24.83;59.48;101265.59;1045252;28;945;-67
2022/08/26 02:51:42;;;;;;;;;;;;;;;24.82;59.36;101258.47;1045370;28;642;-67
2022/08/26 02:52:32;;;;;;;;;;;;;;;24.79;59.40;101261.53;1045250;28;658;-67
2022/08/26 02:53:22;;;;;;;;;;;;;;;24.81;59.18;101256.75;1045369;28;700;-67
2022/08/26 02:54:14;;;;;;;;;;;;;;;24.79;59.39;101262.41;1045272;28;655;-67
2022/08/26 02:55:04;;;;;;;;;;;;;;;24.79;59.45;101258.81;1045338;28;681;-67
2022/08/26 02:55:54;;;;;;;;;;;;;;;24.78;59.42;101260.69;1045413;28;571;-67
2022/08/26 02:56:45;;;;;;;;;;;;;;;24.79;59.31;101264.28;1045287;28;626;-67
2022/08/26 02:57:36;;;;;;;;;;;;;;;24.78;59.32;101262.56;1040953;28;720;-68
2022/08/26 02:58:26;;;;;;;;;;;;;;;24.80;59.31;101257.78;1040916;28;670;-67
2022/08/26 02:59:17;;;;;;;;;;;;;;;24.78;59.42;101262.56;1045767;28;665;-67
2022/08/26 03:00:07;;;;;;;;;;;;;;;24.78;59.25;101262.56;1045310;28;732;-69
2022/08/26 03:00:58;;;;;;;;;;;;;;;24.78;59.29;101265.31;1045178;28;784;-67
2022/08/26 03:01:48;;;;;;;;;;;;;;;24.79;59.28;101264.28;1041417;28;749;-67
2022/08/26 03:02:39;;;;;;;;;;;;;;;24.77;59.42;101260.88;1040860;28;743;-67
2022/08/26 03:03:30;;;;;;;;;;;;;;;24.77;59.32;101263.59;1044650;28;693;-67
2022/08/26 03:04:21;;;;;;;;;;;;;;;24.77;59.48;101269.06;1045158;28;666;-67
2022/08/26 03:05:11;;;;;;;;;;;;;;;24.77;59.24;101264.44;1045327;28;716;-67
2022/08/26 03:06:02;;;;;;;;;;;;;;;24.78;59.10;101266.16;1045313;28;669;-67
2022/08/26 03:06:52;;;;;;;;;;;;;;;24.78;59.38;101262.56;1045293;28;978;-67
2022/08/26 03:07:42;;;;;;;;;;;;;;;24.77;59.46;101260.88;1045057;28;767;-67
2022/08/26 03:08:33;;;;;;;;;;;;;;;24.75;59.44;101263.78;1045211;28;621;-67
2022/08/26 03:09:23;;;;;;;;;;;;;;;24.76;59.52;101253.72;1045248;28;637;-67
2022/08/26 03:10:15;;;;;;;;;;;;;;;24.76;59.27;101260.03;1045187;28;689;-67
2022/08/26 03:11:05;;;;;;;;;;;;;;;24.76;59.31;101253.72;1045312;28;669;-67
2022/08/26 03:11:56;;;;;;;;;;;;;;;24.76;59.28;101259.19;1045270;28;696;-67
2022/08/26 03:12:47;;;;;;;;;;;;;;;24.75;59.49;101263.78;1048758;28;673;-67
2022/08/26 03:13:37;;;;;;;;;;;;;;;24.72;59.38;101269.59;1048788;28;644;-67
2022/08/26 03:14:28;;;;;;;;;;;;;;;24.75;59.49;101268.38;1049274;28;672;-67
2022/08/26 03:15:19;;;;;;;;;;;;;;;24.73;59.32;101262.25;1048680;28;822;-67
2022/08/26 03:16:09;;;;;;;;;;;;;;;24.74;59.31;101266.69;1048749;28;775;-67
2022/08/26 03:16:59;;;;;;;;;;;;;;;24.75;59.21;101266.50;1048980;28;645;-66
2022/08/26 03:17:50;;;;;;;;;;;;;;;24.75;59.48;101271.97;1048737;28;925;-67
2022/08/26 03:18:40;;;;;;;;;;;;;;;24.75;59.42;101265.66;1048963;28;708;-67
2022/08/26 03:19:31;;;;;;;;;;;;;;;24.73;59.24;101271.28;1048673;28;689;-67
2022/08/26 03:20:21;;;;;;;;;;;;;;;24.73;59.48;101273.16;1048870;28;688;-67
2022/08/26 03:21:12;;;;;;;;;;;;;;;24.72;59.27;101274.22;1048700;28;692;-67
2022/08/26 03:22:02;;;;;;;;;;;;;;;24.72;59.39;101277.78;1048803;28;717;-67
2022/08/26 03:22:54;;;;;;;;;;;;;;;24.70;59.66;101274.41;1048069;28;678;-67
2022/08/26 03:23:44;;;;;;;;;;;;;;;24.72;59.37;101268.78;1048281;28;705;-67
2022/08/26 03:24:35;;;;;;;;;;;;;;;24.70;59.59;101268.09;1049568;28;696;-67
2022/08/26 03:25:25;;;;;;;;;;;;;;;24.70;59.50;101266.22;1044832;28;637;-67
2022/08/26 03:26:15;;;;;;;;;;;;;;;24.68;59.61;101273.72;1045307;28;1965;-67
2022/08/26 03:27:06;;;;;;;;;;;;;;;24.69;59.64;101266.41;1049842;28;594;-67
2022/08/26 03:27:56;;;;;;;;;;;;;;;24.70;59.37;101270.81;1048805;28;630;-67
2022/08/26 03:31:05;;;;;;;;;;;;;;;24.70;59.66;101270.81;1049408;28;685;-67
2022/08/26 03:31:55;;;;;;;;;;;;;;;24.69;59.46;101269.97;1048642;28;756;-68
2022/08/26 03:32:46;;;;;;;;;;;;;;;24.68;59.33;101275.59;1048689;28;636;-67
2022/08/26 03:33:36;;;;;;;;;;;;;;;24.69;59.38;101271.84;1048805;28;668;-67
2022/08/26 03:34:27;;;;;;;;;;;;;;;24.67;59.58;101272.03;1048573;28;602;-67
2022/08/26 03:35:17;;;;;;;;;;;;;;;24.69;59.41;101274.59;1048709;28;653;-67
2022/08/26 03:36:08;;;;;;;;;;;;;;;24.68;59.36;101272.88;1048636;28;713;-67
2022/08/26 03:36:58;;;;;;;;;;;;;;;24.68;59.84;101273.72;1048725;28;705;-67
2022/08/26 03:37:48;;;;;;;;;;;;;;;24.68;59.65;101273.72;1048622;28;630;-67
2022/08/26 03:38:39;;;;;;;;;;;;;;;24.69;59.60;101271.84;1049504;28;684;-67
2022/08/26 03:39:29;;;;;;;;;;;;;;;24.69;59.50;101269.13;1049862;28;716;-67
2022/08/26 03:40:20;;;;;;;;;;;;;;;24.68;59.33;101273.72;1048301;28;626;-67
2022/08/26 03:41:11;;;;;;;;;;;;;;;24.67;59.44;101263.00;1044354;28;764;-67
2022/08/26 03:42:01;;;;;;;;;;;;;;;24.67;59.43;101265.72;1045401;28;629;-67
2022/08/26 03:42:52;;;;;;;;;;;;;;;24.67;59.51;101265.72;1048309;28;633;-67
2022/08/26 03:43:42;;;;;;;;;;;;;;;24.67;59.34;101266.59;1048654;28;618;-67
2022/08/26 03:44:32;;;;;;;;;;;;;;;24.65;59.73;101260.47;1048455;28;724;-67
2022/08/26 03:45:23;;;;;;;;;;;;;;;24.66;59.19;101259.44;1049528;28;698;-66
2022/08/26 03:46:13;;;;;;;;;;;;;;;24.65;59.36;101267.78;1048266;28;1952;-67
2022/08/26 03:47:04;;;;;;;;;;;;;;;24.65;59.56;101268.63;1048547;28;642;-67
2022/08/26 03:47:54;;;;;;;;;;;;;;;24.65;59.42;101267.78;1049262;28;689;-67
2022/08/26 03:48:45;;;;;;;;;;;;;;;24.64;59.67;101268.81;1048608;28;665;-67
2022/08/26 03:49:35;;;;;;;;;;;;;;;24.63;59.50;101269.84;1048566;28;709;-67
2022/08/26 03:50:26;;;;;;;;;;;;;;;24.64;59.50;101268.81;1048800;28;634;-67
2022/08/26 03:51:16;;;;;;;;;;;;;;;24.62;59.47;101258.09;1048311;28;645;-67
2022/08/26 03:52:06;;;;;;;;;;;;;;;24.64;59.42;101263.38;1049500;28;645;-67
2022/08/26 03:52:57;;;;;;;;;;;;;;;24.64;59.63;101263.38;1048101;28;627;-67
2022/08/26 03:53:47;;;;;;;;;;;;;;;24.63;59.66;101264.41;1048388;28;657;-67
2022/08/26 03:54:38;;;;;;;;;;;;;;;24.63;59.66;101269.84;1049506;28;654;-67
2022/08/26 03:55:30;;;;;;;;;;;;;;;24.62;59.68;101269.00;1049325;28;649;-67
2022/08/26 03:56:21;;;;;;;;;;;;;;;24.62;59.43;101266.28;1047967;28;663;-67
2022/08/26 03:57:11;;;;;;;;;;;;;;;24.62;59.40;101269.00;1048272;28;701;-67
2022/08/26 03:58:02;;;;;;;;;;;;;;;24.62;59.67;101268.16;1049531;28;626;-67
2022/08/26 03:58:52;;;;;;;;;;;;;;;24.62;59.69;101270.88;1049763;28;642;-67
2022/08/26 03:59:42;;;;;;;;;;;;;;;24.61;59.88;101267.28;1048621;28;714;-66
2022/08/26 04:00:33;;;;;;;;;;;;;;;24.61;59.71;101267.28;1048488;28;697;-67
2022/08/26 04:01:23;;;;;;;;;;;;;;;24.60;59.67;101267.47;1049264;28;717;-67
2022/08/26 04:02:14;;;;;;;;;;;;;;;24.60;59.53;101265.59;1049527;28;711;-67
2022/08/26 04:03:04;;;;;;;;;;;;;;;24.60;59.77;101270.19;1049521;28;910;-67
2022/08/26 04:03:58;;;;;;;;;;;;;;;24.61;59.48;101270.03;1049619;28;661;-67
2022/08/26 04:04:48;;;;;;;;;;;;;;;24.61;59.68;101266.44;1048342;28;701;-67
2022/08/26 04:05:38;;;;;;;;;;;;;;;24.62;59.77;101265.41;1049376;28;773;-67
2022/08/26 04:06:29;;;;;;;;;;;;;;;24.61;59.86;101266.44;1049621;28;1973;-67
2022/08/26 04:07:19;;;;;;;;;;;;;;;24.61;59.63;101263.72;1048730;28;618;-67
2022/08/26 04:08:10;;;;;;;;;;;;;;;24.58;59.58;101263.06;1048468;28;689;-67
2022/08/26 04:09:00;;;;;;;;;;;;;;;24.59;59.53;101269.34;1048583;28;731;-67
2022/08/26 04:09:51;;;;;;;;;;;;;;;24.60;59.70;101264.75;1048430;28;627;-67
2022/08/26 04:10:42;;;;;;;;;;;;;;;24.58;59.36;101263.06;1048440;28;704;-67
2022/08/26 04:11:34;;;;;;;;;;;;;;;24.59;59.79;101269.34;1048202;28;682;-67
2022/08/26 04:12:24;;;;;;;;;;;;;;;24.58;59.60;101264.94;1048553;28;1144;-67
2022/08/26 04:13:15;;;;;;;;;;;;;;;24.56;59.58;101261.53;1049092;28;628;-67
2022/08/26 04:14:05;;;;;;;;;;;;;;;24.56;59.45;101264.25;1049183;28;701;-67
2022/08/26 04:14:56;;;;;;;;;;;;;;;24.57;59.72;101264.06;1049048;28;602;-67
2022/08/26 04:15:46;;;;;;;;;;;;;;;24.58;59.75;101264.94;1049139;28;629;-67
2022/08/26 04:16:37;;;;;;;;;;;;;;;24.55;59.67;101260.69;1049146;28;762;-67
2022/08/26 04:17:28;;;;;;;;;;;;;;;24.55;59.45;101254.38;1049716;28;688;-67
2022/08/26 04:18:18;;;;;;;;;;;;;;;24.56;59.66;101258.81;1049164;28;589;-67
2022/08/26 04:19:09;;;;;;;;;;;;;;;24.55;59.62;101255.22;1048439;28;681;-67
2022/08/26 04:19:59;;;;;;;;;;;;;;;24.55;59.74;101259.84;1048168;28;671;-67
2022/08/26 04:20:50;;;;;;;;;;;;;;;24.55;59.42;101257.09;1048910;28;642;-67
2022/08/26 04:21:40;;;;;;;;;;;;;;;24.54;59.63;101258.97;1049057;28;693;-66
2022/08/26 04:22:30;;;;;;;;;;;;;;;24.53;59.78;101257.31;1049001;28;653;-67
2022/08/26 04:23:21;;;;;;;;;;;;;;;24.54;59.88;101260.88;1049003;28;678;-67
2022/08/26 04:24:11;;;;;;;;;;;;;;;24.54;59.38;101258.97;1049115;28;716;-67
2022/08/26 04:25:02;;;;;;;;;;;;;;;24.54;59.48;101256.25;1049044;28;678;-67
2022/08/26 04:25:52;;;;;;;;;;;;;;;24.55;59.70;101255.22;1049025;28;728;-67
2022/08/26 04:26:43;;;;;;;;;;;;;;;24.55;59.82;101254.38;1048869;28;703;-67
2022/08/26 04:27:33;;;;;;;;;;;;;;;24.54;59.71;101255.44;1049050;28;697;-68
2022/08/26 04:28:24;;;;;;;;;;;;;;;24.53;59.45;101260.03;1049645;28;673;-67
2022/08/26 04:29:14;;;;;;;;;;;;;;;24.52;59.82;101258.34;1048535;28;595;-67